Time;durP1;ratioP1;P1;durP2;ratioP2;P2;SDS_P1;SDS_P2;PMS_P1;PMS_P2;Temp;Humidity;BMP_temperature;BMP_pressure;BME280_temperature;BME280_humidity;BME280_pressure;Samples;Min_cycle;Max_cycle;Signal;HPM_P1;HPM_P2
2021/08/31 00:00:14;;;;;;;4.90;3.40;;;;;;;14.51;89.73;101415.36;111020;1205;62650;-81
2021/08/31 00:02:41;;;;;;;8.60;4.30;;;;;;;14.52;89.65;101418.09;111351;1198;61021;-82
2021/08/31 00:05:10;;;;;;;6.10;4.40;;;;;;;14.52;89.62;101419.63;111029;1205;74550;-82
2021/08/31 00:07:36;;;;;;;6.80;4.60;;;;;;;14.54;89.79;101423.84;111009;1205;72022;-82
2021/08/31 00:10:05;;;;;;;5.90;4.30;;;;;;;14.55;89.68;101425.35;110881;1205;73706;-83
2021/08/31 00:12:31;;;;;;;5.60;4.20;;;;;;;14.55;89.64;101427.67;111266;1203;61623;-83
2021/08/31 00:14:58;;;;;;;13.70;6.10;;;;;;;14.53;89.70;101425.41;110825;1205;61352;-83
2021/08/31 00:17:24;;;;;;;7.00;4.30;;;;;;;14.51;89.71;101419.07;110960;1205;74503;-83
2021/08/31 00:19:51;;;;;;;7.10;4.20;;;;;;;14.49;89.74;101416.45;110948;1205;61245;-82
2021/08/31 00:22:18;;;;;;;8.20;4.00;;;;;;;14.49;90.04;101420.01;110918;1205;61135;-81
2021/08/31 00:24:44;;;;;;;5.80;3.90;;;;;;;14.47;90.03;101413.26;110808;1205;61098;-81
2021/08/31 00:27:10;;;;;;;6.90;4.50;;;;;;;14.45;90.10;101408.73;110836;1205;61206;-80
2021/08/31 00:29:37;;;;;;;6.90;4.10;;;;;;;14.43;90.38;101407.57;110848;1205;61450;-82
2021/08/31 00:32:04;;;;;;;6.80;4.10;;;;;;;14.41;90.52;101405.65;111018;1205;61063;-82
2021/08/31 00:34:31;;;;;;;7.80;4.10;;;;;;;14.40;90.72;101404.73;111167;1203;73868;-82
2021/08/31 00:36:58;;;;;;;5.90;4.40;;;;;;;14.38;90.66;101403.67;111003;1205;61232;-81
2021/08/31 00:39:24;;;;;;;9.10;5.10;;;;;;;14.37;90.79;101404.40;111026;1205;61137;-81
2021/08/31 00:41:51;;;;;;;8.10;5.30;;;;;;;14.35;91.03;101404.66;110955;1205;75652;-82
2021/08/31 00:44:22;;;;;;;8.00;3.90;;;;;;;14.31;91.17;101401.52;110947;1198;71099;-81
2021/08/31 00:46:50;;;;;;;8.80;4.50;;;;;;;14.28;91.25;101396.84;110857;1205;73970;-83
2021/08/31 00:49:17;;;;;;;6.70;4.80;;;;;;;14.26;91.32;101395.82;110745;1205;62975;-81
2021/08/31 00:51:45;;;;;;;7.50;5.40;;;;;;;14.25;91.35;101396.30;110868;1205;61053;-80
2021/08/31 00:54:14;;;;;;;9.60;4.60;;;;;;;14.24;91.80;101397.61;111052;1199;74475;-82
2021/08/31 00:56:44;;;;;;;8.60;5.00;;;;;;;14.23;92.06;101394.09;111230;1205;72025;-82
2021/08/31 00:59:11;;;;;;;7.10;5.40;;;;;;;14.22;92.07;101394.53;111377;1205;73152;-82
2021/08/31 01:01:39;;;;;;;7.20;4.70;;;;;;;14.22;92.20;101396.01;110943;1205;61420;-81
2021/08/31 01:04:06;;;;;;;8.20;5.00;;;;;;;14.22;92.18;101395.80;110899;1198;61420;-81
2021/08/31 01:06:33;;;;;;;10.30;5.20;;;;;;;14.21;92.17;101394.14;110892;1205;61155;-81
2021/08/31 01:08:59;;;;;;;9.50;4.80;;;;;;;14.20;92.21;101396.79;111032;1205;61081;-82
2021/08/31 01:11:27;;;;;;;9.40;4.60;;;;;;;14.17;92.26;101397.33;110850;1205;73700;-81
2021/08/31 01:13:54;;;;;;;7.90;5.20;;;;;;;14.13;92.70;101397.18;111059;1205;60980;-82
2021/08/31 01:16:21;;;;;;;8.00;5.50;;;;;;;14.09;92.83;101398.15;111577;1199;62324;-83
2021/08/31 01:18:47;;;;;;;6.20;4.70;;;;;;;14.06;93.13;101396.13;113468;1205;74614;-81
2021/08/31 01:21:15;;;;;;;13.00;6.00;;;;;;;14.01;93.57;101396.65;111084;1205;61010;-85
2021/08/31 01:23:46;;;;;;;10.20;6.30;;;;;;;13.98;93.73;101398.42;111471;1205;71972;-82
2021/08/31 01:26:13;;;;;;;9.50;5.40;;;;;;;13.97;94.06;101399.67;110920;1205;63919;-82
2021/08/31 01:28:40;;;;;;;9.80;5.90;;;;;;;13.95;93.99;101402.48;110953;1203;61412;-82
2021/08/31 01:31:07;;;;;;;8.40;5.80;;;;;;;13.97;94.09;101408.57;110805;1198;61086;-82
2021/08/31 01:33:34;;;;;;;8.30;5.40;;;;;;;13.98;94.14;101415.82;110971;1205;71641;-86
2021/08/31 01:36:18;;;;;;;10.20;5.40;;;;;;;13.99;94.37;101415.55;110905;1200;73043;-81
2021/08/31 01:38:45;;;;;;;8.70;6.00;;;;;;;14.01;94.20;101422.30;111547;1198;63586;-81
2021/08/31 01:41:12;;;;;;;9.50;5.90;;;;;;;14.02;94.40;101420.70;110988;1203;61752;-80
2021/08/31 01:43:39;;;;;;;9.10;5.10;;;;;;;14.05;94.85;101418.90;110981;1205;74516;-81
2021/08/31 01:46:06;;;;;;;9.50;6.00;;;;;;;14.07;94.42;101418.39;110978;1205;71162;-81
2021/08/31 01:48:32;;;;;;;9.50;5.70;;;;;;;14.08;94.46;101421.28;110817;1203;71575;-80
2021/08/31 01:50:59;;;;;;;7.80;5.30;;;;;;;14.10;94.57;101422.83;110870;1205;62770;-81
2021/08/31 01:53:25;;;;;;;11.60;6.10;;;;;;;14.12;94.43;101429.02;110980;1197;61460;-81
2021/08/31 01:55:52;;;;;;;8.70;6.30;;;;;;;14.14;94.69;101437.14;111010;1205;62260;-81
2021/08/31 01:58:19;;;;;;;10.70;6.90;;;;;;;14.15;94.70;101429.18;110853;1202;61070;-80
2021/08/31 02:00:46;;;;;;;11.60;5.80;;;;;;;14.16;94.48;101427.64;110713;1203;72894;-81
2021/08/31 02:03:13;;;;;;;8.30;6.20;;;;;;;14.16;94.77;101428.67;111006;1204;61082;-81
2021/08/31 02:05:40;;;;;;;10.20;6.50;;;;;;;14.18;94.93;101428.30;110903;1198;61011;-82
2021/08/31 02:08:07;;;;;;;11.30;7.50;;;;;;;14.19;94.85;101424.01;110793;1205;75518;-82
2021/08/31 02:10:33;;;;;;;11.50;6.90;;;;;;;14.20;94.74;101424.10;111110;1205;72459;-83
2021/08/31 02:13:01;;;;;;;12.40;6.90;;;;;;;14.20;94.74;101421.46;110847;1205;73767;-82
2021/08/31 02:15:27;;;;;;;10.40;6.70;;;;;;;14.19;94.81;101423.70;111046;1199;62638;-81
2021/08/31 02:17:54;;;;;;;10.60;6.80;;;;;;;14.18;94.92;101423.62;110844;1205;61137;-80
2021/08/31 02:20:21;;;;;;;11.90;6.90;;;;;;;14.19;95.09;101425.88;110783;1205;61485;-83
2021/08/31 02:22:47;;;;;;;10.20;7.00;;;;;;;14.19;95.26;101421.49;110860;1198;72307;-81
2021/08/31 02:25:14;;;;;;;11.70;6.90;;;;;;;14.19;95.32;101422.10;110785;1206;72773;-82
2021/08/31 02:27:41;;;;;;;11.50;7.00;;;;;;;14.18;95.68;101424.39;110923;1198;61165;-82
2021/08/31 02:30:11;;;;;;;12.40;7.60;;;;;;;14.18;95.83;101424.97;110933;1205;61252;-81
2021/08/31 02:32:38;;;;;;;11.90;7.20;;;;;;;14.17;96.08;101425.02;110863;1197;74622;-80
2021/08/31 02:35:05;;;;;;;9.80;6.90;;;;;;;14.17;96.25;101423.39;110820;1205;61083;-82
2021/08/31 02:37:31;;;;;;;12.20;7.60;;;;;;;14.17;96.23;101419.85;110882;1198;74271;-82
2021/08/31 02:39:58;;;;;;;10.80;7.80;;;;;;;14.16;96.74;101415.19;110884;1205;61950;-80
2021/08/31 02:42:24;;;;;;;13.80;6.30;;;;;;;14.15;96.85;101410.37;110801;1197;61016;-82
2021/08/31 02:44:51;;;;;;;10.10;6.70;;;;;;;14.13;96.99;101405.09;110831;1197;61025;-82
2021/08/31 02:47:18;;;;;;;11.30;7.60;;;;;;;14.10;97.08;101402.88;110844;1205;61126;-82
2021/08/31 02:49:45;;;;;;;11.60;7.60;;;;;;;14.08;97.45;101408.77;110876;1205;61254;-81
2021/08/31 02:52:12;;;;;;;11.00;6.70;;;;;;;14.07;97.35;101409.41;110891;1205;62741;-81
2021/08/31 02:54:39;;;;;;;11.00;7.60;;;;;;;14.08;97.95;101411.13;110834;1205;61283;-81
2021/08/31 02:57:05;;;;;;;15.00;8.20;;;;;;;14.07;97.71;101413.20;110785;1206;75180;-81
2021/08/31 02:59:32;;;;;;;10.80;7.40;;;;;;;14.07;97.84;101415.19;110929;1204;61043;-81
2021/08/31 03:02:05;;;;;;;12.60;8.50;;;;;;;14.06;98.33;101409.89;110954;1204;61086;-82
2021/08/31 03:04:39;;;;;;;13.70;7.80;;;;;;;14.07;98.18;101408.76;111159;1205;61448;-81
2021/08/31 03:07:08;;;;;;;13.00;7.30;;;;;;;14.07;98.54;101409.15;110988;1205;61043;-82
2021/08/31 03:09:35;;;;;;;13.40;7.20;;;;;;;14.06;98.27;101408.67;110916;1205;74419;-82
2021/08/31 03:12:02;;;;;;;12.20;7.20;;;;;;;14.07;98.74;101407.72;110854;1203;70789;-80
2021/08/31 03:14:29;;;;;;;10.20;7.10;;;;;;;14.07;98.73;101407.22;111072;1204;73637;-81
2021/08/31 03:16:57;;;;;;;13.20;7.80;;;;;;;14.06;99.16;101403.55;110950;1205;61676;-82
2021/08/31 03:19:24;;;;;;;15.70;8.40;;;;;;;14.05;99.40;101398.89;110971;1198;61358;-82
2021/08/31 03:21:56;;;;;;;12.70;8.00;;;;;;;14.04;99.39;101398.95;110868;1205;75815;-80
2021/08/31 03:24:24;;;;;;;23.40;8.30;;;;;;;14.04;99.39;101398.40;110994;1205;71099;-81
2021/08/31 03:26:50;;;;;;;11.50;5.90;;;;;;;14.06;99.33;101398.79;110843;1205;72426;-81
2021/08/31 03:29:17;;;;;;;9.80;6.70;;;;;;;14.06;99.53;101403.52;112064;1197;61819;-82
2021/08/31 03:31:44;;;;;;;12.10;8.00;;;;;;;14.06;99.52;101407.09;110921;1205;61077;-83
2021/08/31 03:34:10;;;;;;;16.80;8.90;;;;;;;14.06;99.32;101411.52;110818;1205;61014;-82
2021/08/31 03:36:37;;;;;;;12.00;7.10;;;;;;;14.07;99.07;101412.52;110853;1205;61047;-81
2021/08/31 03:39:04;;;;;;;14.40;8.40;;;;;;;14.08;99.06;101417.38;110775;1205;60997;-82
2021/08/31 03:41:32;;;;;;;11.50;7.30;;;;;;;14.08;98.88;101420.71;110913;1206;62127;-81
2021/08/31 03:43:58;;;;;;;11.50;7.30;;;;;;;14.08;98.96;101416.84;110843;1205;61646;-80
2021/08/31 03:46:25;;;;;;;13.30;8.30;;;;;;;14.04;98.98;101415.51;110960;1205;74564;-82
2021/08/31 03:48:52;;;;;;;8.50;6.10;;;;;;;14.02;98.96;101418.59;110834;1205;71959;-80
2021/08/31 03:51:19;;;;;;;11.40;7.70;;;;;;;14.00;99.28;101421.67;110896;1203;72810;-80
2021/08/31 03:53:45;;;;;;;11.30;6.10;;;;;;;13.97;99.38;101417.19;110862;1206;62024;-82
2021/08/31 03:56:12;;;;;;;14.60;7.60;;;;;;;13.94;99.45;101419.19;110789;1205;61067;-81
2021/08/31 03:58:38;;;;;;;13.10;7.20;;;;;;;13.91;99.69;101417.45;110779;1203;75752;-81
2021/08/31 04:01:05;;;;;;;15.50;7.70;;;;;;;13.86;99.87;101416.48;110878;1206;61109;-81
2021/08/31 04:03:32;;;;;;;13.30;8.90;;;;;;;13.82;99.95;101416.25;110832;1205;72191;-82
2021/08/31 04:05:58;;;;;;;21.80;8.20;;;;;;;13.79;99.95;101417.05;110786;1201;61089;-80
2021/08/31 04:08:25;;;;;;;18.20;7.70;;;;;;;13.73;99.79;101415.68;110865;1205;61094;-81
2021/08/31 04:10:51;;;;;;;14.30;8.50;;;;;;;13.69;99.84;101417.81;110819;1198;61088;-81
2021/08/31 04:13:18;;;;;;;14.70;8.20;;;;;;;13.66;99.87;101421.90;110810;1205;61049;-81
2021/08/31 04:15:46;;;;;;;13.10;7.50;;;;;;;13.62;99.90;101421.95;111098;1205;73873;-84
2021/08/31 04:18:14;;;;;;;14.30;9.30;;;;;;;13.60;99.86;101421.02;111064;1205;63155;-83
2021/08/31 04:20:40;;;;;;;12.20;8.50;;;;;;;13.58;99.97;101424.29;110871;1205;61067;-83
2021/08/31 04:23:07;;;;;;;14.10;8.40;;;;;;;13.56;100.00;101428.77;112424;1205;76027;-82
2021/08/31 04:25:34;;;;;;;12.00;7.60;;;;;;;13.53;100.00;101432.52;111829;1205;72119;-82
2021/08/31 04:28:01;;;;;;;12.00;7.40;;;;;;;13.49;100.00;101434.59;110773;1205;72615;-81
2021/08/31 04:30:27;;;;;;;13.90;7.70;;;;;;;13.44;100.00;101436.42;110863;1205;62890;-83
2021/08/31 04:32:54;;;;;;;11.30;7.90;;;;;;;13.39;100.00;101434.00;110942;1198;61015;-83
2021/08/31 04:35:21;;;;;;;12.90;6.40;;;;;;;13.35;100.00;101433.77;111003;1205;61422;-83
2021/08/31 04:37:47;;;;;;;10.80;7.10;;;;;;;13.30;100.00;101438.27;111025;1197;70574;-80
2021/08/31 04:40:14;;;;;;;15.20;7.20;;;;;;;13.26;100.00;101440.97;111009;1205;72369;-81
2021/08/31 04:42:41;;;;;;;13.30;7.80;;;;;;;13.22;100.00;101442.48;111134;1205;61966;-82
2021/08/31 04:45:08;;;;;;;21.90;9.00;;;;;;;13.18;100.00;101448.13;110983;1205;61097;-82
2021/08/31 04:47:34;;;;;;;19.10;8.70;;;;;;;13.16;100.00;101451.77;110852;1205;75611;-81
2021/08/31 04:50:01;;;;;;;14.50;7.70;;;;;;;13.13;100.00;101453.98;110805;1205;61111;-81
2021/08/31 04:52:28;;;;;;;19.00;9.50;;;;;;;13.12;100.00;101456.85;110826;1205;61724;-82
2021/08/31 04:54:56;;;;;;;14.30;7.40;;;;;;;13.10;100.00;101450.83;110915;1203;63301;-82
2021/08/31 04:57:23;;;;;;;13.40;8.90;;;;;;;13.09;100.00;101456.29;111628;1205;61775;-82
2021/08/31 04:59:49;;;;;;;16.40;8.30;;;;;;;13.06;100.00;101451.41;111063;1200;74471;-83
2021/08/31 05:02:16;;;;;;;20.20;8.30;;;;;;;13.06;100.00;101453.31;111114;1205;71170;-83
2021/08/31 05:04:43;;;;;;;12.40;5.40;;;;;;;13.06;100.00;101455.14;111146;1197;73540;-83
2021/08/31 05:07:11;;;;;;;12.70;6.80;;;;;;;13.05;100.00;101452.71;111140;1205;62041;-83
2021/08/31 05:09:42;;;;;;;15.30;8.80;;;;;;;13.04;100.00;101459.05;110977;1205;61092;-73
2021/08/31 05:12:09;;;;;;;13.00;7.80;;;;;;;13.04;100.00;101456.73;110557;1205;75470;-73
2021/08/31 05:14:35;;;;;;;12.20;7.10;;;;;;;13.03;100.00;101457.71;110788;1205;71214;-73
2021/08/31 05:17:03;;;;;;;14.20;7.20;;;;;;;13.03;100.00;101461.44;110495;1206;61089;-74
2021/08/31 05:19:32;;;;;;;15.30;6.90;;;;;;;13.02;100.00;101462.44;111094;1205;61889;-76
2021/08/31 05:22:02;;;;;;;14.10;7.60;;;;;;;13.00;100.00;101468.74;110600;1204;61260;-74
2021/08/31 05:24:29;;;;;;;15.60;6.80;;;;;;;12.98;100.00;101474.98;110575;1198;76181;-75
2021/08/31 05:26:57;;;;;;;13.90;7.60;;;;;;;12.98;100.00;101476.96;110610;1205;71157;-74
2021/08/31 05:29:23;;;;;;;13.10;7.30;;;;;;;12.96;100.00;101475.42;110735;1205;73618;-76
2021/08/31 05:31:50;;;;;;;13.30;7.50;;;;;;;12.97;100.00;101478.39;110579;1198;62913;-75
2021/08/31 05:34:17;;;;;;;10.20;5.60;;;;;;;12.97;100.00;101473.14;110659;1197;61082;-77
2021/08/31 05:36:43;;;;;;;15.10;6.80;;;;;;;12.97;100.00;101472.41;110586;1205;75570;-75
2021/08/31 05:39:10;;;;;;;11.30;7.10;;;;;;;12.98;100.00;101474.54;110581;1205;61107;-74
2021/08/31 05:41:36;;;;;;;11.00;6.40;;;;;;;12.98;100.00;101477.20;110569;1205;61046;-74
2021/08/31 05:44:03;;;;;;;12.30;6.40;;;;;;;12.99;100.00;101477.80;110636;1205;61131;-77
2021/08/31 05:46:31;;;;;;;13.00;7.20;;;;;;;12.98;100.00;101477.67;110700;1205;61294;-75
2021/08/31 05:48:58;;;;;;;14.60;6.90;;;;;;;12.99;100.00;101477.77;110611;1205;75707;-74
2021/08/31 05:51:24;;;;;;;13.30;7.10;;;;;;;12.99;100.00;101480.27;110667;1205;71980;-75
2021/08/31 05:53:54;;;;;;;13.90;7.00;;;;;;;12.99;99.97;101478.14;110719;1205;75848;-74
2021/08/31 05:56:22;;;;;;;13.90;7.20;;;;;;;13.01;100.00;101485.52;110680;1205;62904;-73
2021/08/31 05:58:49;;;;;;;14.70;7.40;;;;;;;13.05;100.00;101492.20;110685;1205;61836;-73
2021/08/31 06:01:15;;;;;;;12.50;7.80;;;;;;;13.12;99.94;101495.30;111375;1205;75730;-74
2021/08/31 06:03:42;;;;;;;13.80;6.60;;;;;;;13.21;99.85;101499.14;110837;1205;71036;-75
2021/08/31 06:06:09;;;;;;;11.00;5.70;;;;;;;13.30;99.70;101503.13;110847;1205;72513;-75
2021/08/31 06:08:36;;;;;;;12.40;7.10;;;;;;;13.37;98.99;101506.36;110798;1205;61695;-75
2021/08/31 06:11:03;;;;;;;12.40;7.40;;;;;;;13.46;98.88;101505.06;111212;1205;61142;-74
2021/08/31 06:13:30;;;;;;;15.30;7.40;;;;;;;13.54;98.74;101504.61;110774;1206;75689;-73
2021/08/31 06:15:56;;;;;;;18.00;7.80;;;;;;;13.64;98.61;101502.09;110772;1204;70830;-74
2021/08/31 06:18:23;;;;;;;13.80;8.10;;;;;;;13.76;98.05;101500.60;110785;1205;61046;-74
2021/08/31 06:20:50;;;;;;;13.20;7.60;;;;;;;13.85;97.46;101503.10;110688;1205;62629;-74
2021/08/31 06:23:18;;;;;;;13.30;7.60;;;;;;;13.92;96.58;101507.13;110726;1205;61181;-73
2021/08/31 06:25:44;;;;;;;9.00;5.60;;;;;;;13.98;96.18;101510.42;110744;1204;74660;-74
2021/08/31 06:28:11;;;;;;;13.60;6.80;;;;;;;14.03;95.63;101507.23;110767;1204;71946;-74
2021/08/31 06:30:38;;;;;;;11.20;7.20;;;;;;;14.05;95.30;101510.16;110641;1204;73543;-74
2021/08/31 06:33:04;;;;;;;7.80;5.50;;;;;;;14.04;94.65;101507.52;110792;1205;63330;-72
2021/08/31 06:35:31;;;;;;;11.60;7.00;;;;;;;14.03;94.90;101507.34;110866;1204;61100;-72
2021/08/31 06:37:57;;;;;;;13.30;7.00;;;;;;;14.07;94.99;101506.42;110792;1204;61142;-72
2021/08/31 06:40:25;;;;;;;10.80;6.60;;;;;;;14.08;94.43;101517.69;110704;1204;72215;-74
2021/08/31 06:42:52;;;;;;;9.70;5.80;;;;;;;14.07;94.20;101510.63;110731;1204;72782;-74
2021/08/31 06:45:19;;;;;;;11.30;6.60;;;;;;;14.10;94.17;101506.85;110871;1204;63124;-74
2021/08/31 06:47:46;;;;;;;9.10;5.30;;;;;;;14.11;93.95;101505.36;110708;1204;61208;-73
2021/08/31 06:50:16;;;;;;;11.80;6.40;;;;;;;14.17;93.96;101501.48;110774;1205;75599;-72
2021/08/31 06:52:44;;;;;;;10.80;5.60;;;;;;;14.26;94.18;101503.45;110653;1205;71146;-73
2021/08/31 06:55:11;;;;;;;10.10;5.60;;;;;;;14.38;93.64;101508.44;110778;1205;72717;-74
2021/08/31 06:57:38;;;;;;;10.70;6.20;;;;;;;14.49;93.13;101510.98;110807;1204;62883;-72
2021/08/31 07:00:07;;;;;;;18.10;6.80;;;;;;;14.59;92.88;101509.02;110861;1205;61104;-72
2021/08/31 07:02:34;;;;;;;10.70;6.40;;;;;;;14.70;92.01;101511.13;111132;1197;74559;-72
2021/08/31 07:05:01;;;;;;;10.70;5.20;;;;;;;14.78;91.03;101514.10;111000;1204;71186;-74
2021/08/31 07:07:28;;;;;;;8.00;4.70;;;;;;;14.83;90.16;101513.36;110682;1204;72172;-73
2021/08/31 07:09:54;;;;;;;8.50;4.80;;;;;;;14.90;90.01;101511.13;110724;1205;61706;-72
2021/08/31 07:12:21;;;;;;;10.10;6.30;;;;;;;14.98;89.47;101508.89;110780;1205;61082;-72
2021/08/31 07:14:48;;;;;;;11.10;6.20;;;;;;;15.07;88.52;101512.63;110673;1205;75765;-71
2021/08/31 07:17:15;;;;;;;11.70;6.00;;;;;;;15.15;88.51;101513.23;110683;1205;71201;-71
2021/08/31 07:19:42;;;;;;;8.90;5.80;;;;;;;15.27;88.70;101516.97;110594;1205;72279;-73
2021/08/31 07:22:09;;;;;;;11.30;5.30;;;;;;;15.38;87.73;101519.05;110694;1198;61092;-74
2021/08/31 07:24:35;;;;;;;10.50;5.20;;;;;;;15.45;86.38;101524.11;110565;1205;61785;-72
2021/08/31 07:27:02;;;;;;;12.50;6.10;;;;;;;15.49;86.57;101526.02;110681;1204;61022;-71
2021/08/31 07:29:29;;;;;;;9.60;5.70;;;;;;;15.54;85.99;101529.48;110593;1205;71241;-73
2021/08/31 07:31:56;;;;;;;9.30;5.70;;;;;;;15.57;86.22;101528.36;110586;1205;73031;-74
2021/08/31 07:34:22;;;;;;;10.00;4.80;;;;;;;15.58;84.85;101531.30;110579;1205;61307;-74
2021/08/31 07:36:49;;;;;;;8.90;5.10;;;;;;;15.58;84.93;101538.25;110619;1205;61038;-72
2021/08/31 07:39:15;;;;;;;9.00;4.60;;;;;;;15.65;84.80;101536.73;110701;1204;61146;-74
2021/08/31 07:41:42;;;;;;;9.00;5.30;;;;;;;15.76;84.40;101537.64;110710;1205;61072;-71
2021/08/31 07:44:08;;;;;;;10.10;5.50;;;;;;;15.87;83.85;101536.47;110681;1205;61018;-72
2021/08/31 07:46:35;;;;;;;7.80;4.50;;;;;;;15.95;82.83;101530.46;110493;1205;61181;-73
2021/08/31 07:49:02;;;;;;;7.10;4.00;;;;;;;16.05;81.49;101538.02;110687;1205;61054;-73
2021/08/31 07:51:28;;;;;;;6.80;4.70;;;;;;;16.16;82.25;101535.90;110825;1204;61083;-73
2021/08/31 07:53:55;;;;;;;13.00;5.90;;;;;;;16.27;80.44;101539.15;110797;1205;70962;-73
2021/08/31 07:56:21;;;;;;;8.50;4.80;;;;;;;16.39;80.95;101536.82;110599;1205;61549;-72
2021/08/31 07:58:48;;;;;;;8.10;4.20;;;;;;;16.47;79.58;101537.55;110625;1197;61187;-73
2021/08/31 08:01:14;;;;;;;7.40;4.10;;;;;;;16.53;79.41;101540.60;110754;1198;61891;-72
2021/08/31 08:03:41;;;;;;;6.20;3.80;;;;;;;16.61;78.46;101547.64;110906;1205;76540;-73
2021/08/31 08:06:08;;;;;;;6.80;3.40;;;;;;;16.63;78.25;101542.88;110571;1205;70964;-71
2021/08/31 08:08:34;;;;;;;12.60;4.20;;;;;;;16.70;77.99;101543.01;110699;1205;62058;-72
2021/08/31 08:11:01;;;;;;;6.40;3.80;;;;;;;16.78;77.30;101547.07;110711;1206;61021;-71
2021/08/31 08:13:27;;;;;;;7.60;4.60;;;;;;;16.86;77.07;101541.29;110738;1205;61166;-73
2021/08/31 08:15:54;;;;;;;8.50;4.60;;;;;;;16.89;76.18;101540.28;110683;1198;61462;-73
2021/08/31 08:18:20;;;;;;;7.80;4.30;;;;;;;16.88;75.68;101537.77;110679;1205;60999;-73
2021/08/31 08:20:47;;;;;;;8.40;4.70;;;;;;;16.90;76.14;101540.58;110663;1205;61576;-75
2021/08/31 08:23:14;;;;;;;7.10;4.30;;;;;;;16.92;75.19;101539.11;110800;1205;61100;-74
2021/08/31 08:25:40;;;;;;;10.00;4.80;;;;;;;17.00;75.88;101538.79;110865;1205;61554;-74
2021/08/31 08:28:19;;;;;;;6.40;4.00;;;;;;;17.08;75.21;101543.45;110570;1206;74258;-72
2021/08/31 08:30:46;;;;;;;6.60;4.10;;;;;;;17.20;74.47;101544.35;110805;1205;71942;-72
2021/08/31 08:33:12;;;;;;;6.20;3.70;;;;;;;17.34;72.36;101543.47;110727;1205;61217;-73
2021/08/31 08:35:39;;;;;;;6.90;3.30;;;;;;;17.43;70.99;101539.88;110739;1197;61060;-74
2021/08/31 08:38:05;;;;;;;5.20;3.60;;;;;;;17.53;71.15;101541.98;110703;1204;61101;-71
2021/08/31 08:40:34;;;;;;;9.00;4.70;;;;;;;17.62;71.57;101543.59;110677;1205;61193;-74
2021/08/31 08:43:26;;;;;;;9.80;5.30;;;;;;;17.78;73.19;101546.88;110705;1205;71073;-73
2021/08/31 08:45:54;;;;;;;8.40;4.50;;;;;;;17.90;72.87;101554.98;110771;1206;73071;-73
2021/08/31 08:48:24;;;;;;;12.10;7.00;;;;;;;18.00;72.69;101549.44;110796;1206;62956;-71
2021/08/31 08:50:54;;;;;;;6.20;3.70;;;;;;;18.16;72.86;101544.88;110561;1199;61169;-74
2021/08/31 08:53:22;;;;;;;6.90;3.30;;;;;;;18.25;70.12;101544.92;110477;1207;75593;-72
2021/08/31 08:55:48;;;;;;;7.40;4.30;;;;;;;18.23;68.43;101548.98;110511;1198;71328;-73
2021/08/31 08:58:15;;;;;;;6.20;3.50;;;;;;;18.24;69.55;101542.20;110832;1206;72650;-72
2021/08/31 09:00:53;;;;;;;7.90;4.20;;;;;;;18.35;70.56;101545.96;110686;1206;61090;-70
2021/08/31 09:03:22;;;;;;;9.40;4.80;;;;;;;18.50;70.33;101549.40;110725;1207;61410;-72
2021/08/31 09:05:51;;;;;;;9.70;5.60;;;;;;;18.57;69.99;101552.83;110843;1199;73623;-72
2021/08/31 09:08:22;;;;;;;7.80;4.60;;;;;;;18.65;70.09;101551.71;110772;1207;70781;-72
2021/08/31 09:10:48;;;;;;;8.30;5.00;;;;;;;18.74;69.38;101556.48;110824;1200;72539;-73
2021/08/31 09:13:20;;;;;;;8.10;5.10;;;;;;;18.81;69.01;101555.50;110686;1201;61121;-71
2021/08/31 09:15:47;;;;;;;8.00;5.60;;;;;;;18.83;69.73;101550.70;110808;1207;61120;-73
2021/08/31 09:18:19;;;;;;;7.40;4.70;;;;;;;18.92;69.73;101552.84;110804;1206;61558;-72
2021/08/31 09:20:55;;;;;;;6.10;4.00;;;;;;;18.90;68.43;101554.66;110755;1205;71004;-73
2021/08/31 09:23:27;;;;;;;7.80;4.90;;;;;;;18.89;69.01;101549.08;110578;1206;73917;-74
2021/08/31 09:26:07;;;;;;;5.90;4.30;;;;;;;18.94;69.55;101548.36;110768;1199;62377;-73
2021/08/31 09:28:36;;;;;;;8.40;4.30;;;;;;;18.93;68.52;101549.27;110603;1205;61235;-72
2021/08/31 09:31:05;;;;;;;7.10;4.40;;;;;;;18.92;69.24;101550.86;110789;1204;74589;-71
2021/08/31 09:33:40;;;;;;;10.50;4.30;;;;;;;18.84;68.75;101551.94;110774;1204;72570;-73
2021/08/31 09:36:13;;;;;;;7.80;4.20;;;;;;;18.81;69.97;101553.13;110815;1205;72640;-72
2021/08/31 09:38:46;;;;;;;8.00;4.60;;;;;;;18.88;69.88;101548.41;110836;1205;61085;-71
2021/08/31 09:41:39;;;;;;;6.80;4.40;;;;;;;18.92;69.84;101545.48;110870;1205;61757;-72
2021/08/31 09:44:21;;;;;;;6.40;4.60;;;;;;;19.03;69.63;101551.12;110752;1205;74220;-73
2021/08/31 09:47:02;;;;;;;9.10;3.70;;;;;;;19.12;68.89;101549.36;110747;1204;71790;-73
2021/08/31 09:49:40;;;;;;;5.90;4.00;;;;;;;19.20;68.23;101547.89;110628;1205;73803;-71
2021/08/31 09:52:09;;;;;;;5.90;4.10;;;;;;;19.28;68.18;101550.23;110764;1200;61091;-73
2021/08/31 09:54:47;;;;;;;8.60;4.40;;;;;;;19.32;67.87;101550.72;110836;1205;61090;-73
2021/08/31 09:57:28;;;;;;;5.80;3.70;;;;;;;19.40;67.60;101556.90;110688;1204;74481;-71
2021/08/31 09:59:56;;;;;;;11.00;4.50;;;;;;;19.44;67.51;101548.44;110668;1205;72103;-72
2021/08/31 10:02:23;;;;;;;8.60;3.50;;;;;;;19.54;67.90;101551.80;110703;1205;73655;-73
2021/08/31 10:04:53;;;;;;;5.50;3.80;;;;;;;19.68;68.32;101547.56;110905;1200;61557;-72
2021/08/31 10:07:22;;;;;;;7.40;3.80;;;;;;;19.80;66.16;101549.62;110916;1198;61095;-71
2021/08/31 10:09:49;;;;;;;5.70;3.50;;;;;;;19.93;66.01;101545.50;110974;1204;75492;-72
2021/08/31 10:12:20;;;;;;;5.20;3.20;;;;;;;20.08;65.78;101546.85;111023;1205;71930;-72
2021/08/31 10:14:52;;;;;;;5.60;3.00;;;;;;;20.18;64.70;101541.06;110929;1204;72641;-72
2021/08/31 10:17:21;;;;;;;5.60;3.60;;;;;;;20.15;64.80;101542.52;111023;1205;61067;-70
2021/08/31 10:19:51;;;;;;;4.30;2.90;;;;;;;20.21;64.36;101542.54;111005;1205;61227;-72
2021/08/31 10:22:19;;;;;;;4.60;2.80;;;;;;;20.29;63.11;101532.52;110895;1205;73862;-71
2021/08/31 10:24:47;;;;;;;9.00;3.00;;;;;;;20.40;62.73;101535.67;110909;1205;71074;-70
2021/08/31 10:27:40;;;;;;;4.30;2.80;;;;;;;20.42;61.47;101540.64;110752;1205;73595;-72
2021/08/31 10:30:18;;;;;;;8.50;2.70;;;;;;;20.39;61.80;101536.98;110857;1205;61076;-72
2021/08/31 10:32:57;;;;;;;5.40;2.60;;;;;;;20.51;62.62;101540.19;110861;1205;61075;-72
2021/08/31 10:35:45;;;;;;;4.90;2.70;;;;;;;20.64;61.75;101549.09;110790;1205;74265;-73
2021/08/31 10:38:13;;;;;;;4.80;2.50;;;;;;;20.80;61.81;101549.50;110758;1205;72142;-71
2021/08/31 10:40:47;;;;;;;5.30;2.50;;;;;;;20.92;59.75;101551.95;111060;1204;73468;-72
2021/08/31 10:43:19;;;;;;;3.20;1.90;;;;;;;21.06;60.00;101548.40;110702;1204;61134;-71
2021/08/31 10:45:54;;;;;;;6.10;3.40;;;;;;;21.22;59.14;101553.13;110643;1205;61092;-72
2021/08/31 10:48:24;;;;;;;3.90;2.50;;;;;;;21.45;58.35;101557.27;110813;1205;74564;-73
2021/08/31 10:51:03;;;;;;;4.50;2.50;;;;;;;21.51;57.15;101556.59;110724;1205;71262;-71
2021/08/31 10:53:48;;;;;;;8.70;2.80;;;;;;;21.61;56.42;101560.21;110962;1205;74725;-72
2021/08/31 10:56:25;;;;;;;5.40;2.40;;;;;;;21.71;56.75;101551.73;110758;1205;61058;-73
2021/08/31 10:58:56;;;;;;;4.00;2.60;;;;;;;21.82;56.97;101555.45;110920;1205;61308;-73
2021/08/31 11:01:43;;;;;;;4.60;2.60;;;;;;;21.98;57.05;101553.23;110991;1205;76276;-72
2021/08/31 11:04:30;;;;;;;4.90;2.80;;;;;;;22.08;55.03;101553.53;110792;1205;71078;-72
2021/08/31 11:07:04;;;;;;;6.40;2.70;;;;;;;22.30;55.72;101550.40;110847;1205;72486;-74
2021/08/31 11:09:32;;;;;;;5.60;2.50;;;;;;;22.35;54.86;101549.70;110797;1205;61134;-73
2021/08/31 11:12:06;;;;;;;4.20;2.50;;;;;;;22.44;54.66;101551.10;110859;1198;61082;-73
2021/08/31 11:14:56;;;;;;;4.60;2.80;;;;;;;22.47;53.90;101548.05;110864;1205;75699;-72
2021/08/31 11:17:32;;;;;;;5.50;2.50;;;;;;;22.65;54.35;101550.83;110756;1206;71156;-73